Time;durP1;ratioP1;P1;durP2;ratioP2;P2;SDS_P1;SDS_P2;PMS_P1;PMS_P2;Temp;Humidity;BMP_temperature;BMP_pressure;BME280_temperature;BME280_humidity;BME280_pressure;Samples;Min_cycle;Max_cycle;Signal;HPM_P1;HPM_P2
2022/01/10 00:01:49;;;;;;;38.58;17.00;;;2.60;99.90;;;;;;5096741;28;20105;-79
2022/01/10 00:04:15;;;;;;;64.70;18.77;;;2.60;99.90;;;;;;5096875;28;20070;-78
2022/01/10 00:06:41;;;;;;;42.10;17.40;;;2.60;99.90;;;;;;5096774;28;20059;-79
2022/01/10 00:09:07;;;;;;;38.03;18.52;;;2.70;99.90;;;;;;5096849;28;20064;-79
2022/01/10 00:11:33;;;;;;;45.03;17.70;;;2.50;99.90;;;;;;5096687;28;20024;-78
2022/01/10 00:13:58;;;;;;;44.83;17.67;;;2.40;99.90;;;;;;5095162;28;20035;-79
2022/01/10 00:16:25;;;;;;;49.65;18.95;;;2.30;99.90;;;;;;5096704;28;20410;-74
2022/01/10 00:18:51;;;;;;;46.97;18.67;;;2.30;99.90;;;;;;5096935;28;20053;-78
2022/01/10 00:21:16;;;;;;;51.05;17.52;;;2.40;99.90;;;;;;5096640;28;20032;-79
2022/01/10 00:23:42;;;;;;;38.47;17.33;;;2.50;99.90;;;;;;5096425;28;20469;-79
2022/01/10 00:26:08;;;;;;;43.75;17.35;;;2.50;99.90;;;;;;5096310;28;20099;-78
2022/01/10 00:28:33;;;;;;;53.83;18.17;;;2.40;99.90;;;;;;5096163;28;20039;-79
2022/01/10 00:30:59;;;;;;;42.65;18.00;;;2.40;99.90;;;;;;5096353;28;20103;-78
2022/01/10 00:33:25;;;;;;;41.72;18.02;;;2.50;99.90;;;;;;5095008;28;20024;-79
2022/01/10 00:35:51;;;;;;;44.53;17.52;;;2.50;99.90;;;;;;5096395;28;20153;-79
2022/01/10 00:38:17;;;;;;;53.50;18.40;;;2.50;99.90;;;;;;5096354;28;20470;-79
2022/01/10 00:40:42;;;;;;;56.35;20.40;;;2.40;99.90;;;;;;5094843;28;20030;-79
2022/01/10 00:43:17;;;;;;;41.78;18.55;;;2.30;99.90;;;;;;5094498;28;20032;-79
2022/01/10 00:45:42;;;;;;;52.80;19.55;;;2.50;99.90;;;;;;5095963;28;20028;-79
2022/01/10 00:48:08;;;;;;;53.60;20.00;;;2.50;99.90;;;;;;5094834;28;20468;-78
2022/01/10 00:50:34;;;;;;;55.70;18.85;;;2.60;99.90;;;;;;5096256;28;20020;-78
2022/01/10 00:53:01;;;;;;;43.25;18.67;;;2.50;99.90;;;;;;5094835;28;20435;-79
2022/01/10 00:55:29;;;;;;;45.10;18.63;;;2.50;99.90;;;;;;5096055;28;20036;-79
2022/01/10 00:57:55;;;;;;;55.22;21.13;;;2.30;99.90;;;;;;5095557;28;20103;-77
2022/01/10 01:00:21;;;;;;;41.35;18.83;;;2.40;99.90;;;;;;5093877;28;20027;-78
2022/01/10 01:02:47;;;;;;;44.30;18.92;;;2.40;99.90;;;;;;5093865;28;20028;-79
2022/01/10 01:05:16;;;;;;;42.92;18.40;;;2.30;99.90;;;;;;5095999;28;20388;-79
2022/01/10 01:07:42;;;;;;;52.63;18.48;;;2.30;99.90;;;;;;5094304;28;20028;-79
2022/01/10 01:13:09;;;;;;;56.22;20.15;;;2.40;99.90;;;;;;5095098;28;20020;-79
2022/01/10 01:15:45;;;;;;;51.08;20.50;;;2.40;99.90;;;;;;5095535;28;20118;-79
2022/01/10 01:18:19;;;;;;;46.88;19.75;;;2.50;99.90;;;;;;5095418;28;20506;-78
2022/01/10 01:24:01;;;;;;;50.03;19.80;;;2.50;99.90;;;;;;5095280;28;20182;-79
2022/01/10 01:26:14;;;;;;;46.25;17.42;;;2.50;99.90;;;;;;5093527;28;20051;-79
2022/01/10 01:28:40;;;;;;;48.13;17.23;;;2.50;99.90;;;;;;5095518;28;20024;-79
2022/01/10 01:31:06;;;;;;;39.40;17.38;;;2.40;99.90;;;;;;5094086;28;20032;-79
2022/01/10 01:33:31;;;;;;;47.58;20.05;;;2.50;99.90;;;;;;5077167;28;20032;-79
2022/01/10 01:35:58;;;;;;;44.78;18.60;;;2.60;99.90;;;;;;5093756;28;20063;-78
2022/01/10 01:38:24;;;;;;;53.38;17.80;;;2.70;99.90;;;;;;5093712;28;20064;-77
2022/01/10 01:40:58;;;;;;;48.20;18.40;;;2.50;99.90;;;;;;5094939;28;20024;-79
2022/01/10 01:43:23;;;;;;;48.22;19.20;;;2.60;99.90;;;;;;5093934;28;20058;-79
2022/01/10 01:45:49;;;;;;;46.63;18.95;;;2.50;99.90;;;;;;5093780;28;20020;-79
2022/01/10 01:48:16;;;;;;;51.35;19.00;;;2.10;99.90;;;;;;5076729;28;20077;-78
2022/01/10 01:50:42;;;;;;;47.20;18.60;;;2.10;99.90;;;;;;5093519;28;20028;-79
2022/01/10 01:53:09;;;;;;;55.47;19.90;;;2.00;99.90;;;;;;5083715;28;20115;-78
2022/01/10 01:55:37;;;;;;;41.15;18.30;;;1.90;99.90;;;;;;5073099;28;20067;-79
2022/01/10 01:58:02;;;;;;;54.65;19.77;;;2.10;99.90;;;;;;5074355;28;20423;-79
2022/01/10 02:00:28;;;;;;;42.53;18.27;;;2.20;99.90;;;;;;5056518;28;20047;-79
2022/01/10 02:02:54;;;;;;;40.78;17.50;;;2.20;99.90;;;;;;5056312;28;20147;-79
2022/01/10 02:05:22;;;;;;;41.95;17.13;;;2.20;99.90;;;;;;5073253;28;20023;-79
2022/01/10 02:07:48;;;;;;;38.58;17.55;;;2.20;99.90;;;;;;5072934;28;20029;-79
2022/01/10 02:10:15;;;;;;;45.92;16.20;;;2.00;99.90;;;;;;5088562;28;20032;-79
2022/01/10 02:12:41;;;;;;;45.47;16.85;;;2.00;99.90;;;;;;5092956;28;20032;-79
2022/01/10 02:15:33;;;;;;;36.35;16.45;;;1.90;99.90;;;;;;5093296;28;20063;-79
2022/01/10 02:18:03;;;;;;;46.33;16.23;;;2.10;99.90;;;;;;5092629;28;20056;-79
2022/01/10 02:20:33;;;;;;;43.30;17.88;;;2.20;99.90;;;;;;5092925;28;20480;-80
2022/01/10 02:22:59;;;;;;;39.15;16.67;;;2.10;99.90;;;;;;5075962;28;20039;-77
2022/01/10 02:25:55;;;;;;;47.83;17.05;;;1.90;99.90;;;;;;5084440;28;20028;-79
2022/01/10 02:28:26;;;;;;;41.53;17.90;;;2.00;99.90;;;;;;5092722;28;20032;-79
2022/01/10 02:30:56;;;;;;;37.85;17.77;;;2.10;99.90;;;;;;5092776;28;20024;-78
2022/01/10 02:33:30;;;;;;;35.80;16.42;;;2.20;99.90;;;;;;5092695;28;20085;-78
2022/01/10 02:38:52;;;;;;;37.50;15.85;;;2.10;99.90;;;;;;5092268;28;20401;-79
2022/01/10 02:41:26;;;;;;;35.58;15.75;;;2.00;99.90;;;;;;5093735;28;20032;-79
2022/01/10 02:43:53;;;;;;;38.95;16.40;;;1.70;99.90;;;;;;5092363;28;20119;-78
2022/01/10 02:46:20;;;;;;;42.05;17.48;;;1.50;99.90;;;;;;5092456;28;20024;-79
2022/01/10 02:48:46;;;;;;;39.95;17.00;;;1.50;99.90;;;;;;5092251;28;20016;-78
2022/01/10 02:51:12;;;;;;;44.28;17.65;;;1.60;99.90;;;;;;5092282;28;20024;-79
2022/01/10 02:53:38;;;;;;;37.55;18.45;;;1.80;99.90;;;;;;5093483;28;20031;-78
2022/01/10 02:56:04;;;;;;;46.70;18.30;;;1.90;99.90;;;;;;5092322;28;20032;-79
2022/01/10 02:58:30;;;;;;;45.72;17.40;;;1.90;99.90;;;;;;5092199;28;20492;-79
2022/01/10 03:00:56;;;;;;;46.75;18.25;;;1.90;99.90;;;;;;5091932;28;20035;-79
2022/01/10 03:03:26;;;;;;;47.58;18.42;;;1.90;99.90;;;;;;5092022;28;20488;-79
2022/01/10 03:05:52;;;;;;;44.15;17.20;;;2.00;99.90;;;;;;5093326;28;20376;-80
2022/01/10 03:08:17;;;;;;;52.63;18.85;;;2.10;99.90;;;;;;5093218;28;20032;-79
2022/01/10 03:10:43;;;;;;;41.00;18.05;;;2.20;99.90;;;;;;5091829;28;20020;-79
2022/01/10 03:13:09;;;;;;;43.17;16.60;;;2.40;99.90;;;;;;5091988;28;20069;-79
2022/01/10 03:15:35;;;;;;;34.60;16.42;;;2.50;99.90;;;;;;5075118;28;20396;-79
2022/01/10 03:18:01;;;;;;;37.10;16.75;;;2.30;99.90;;;;;;5093023;28;20032;-79
2022/01/10 03:20:26;;;;;;;37.60;17.60;;;2.20;99.90;;;;;;5091753;28;20028;-79
2022/01/10 03:22:53;;;;;;;52.95;18.00;;;2.30;99.90;;;;;;5091547;28;20088;-79
2022/01/10 03:25:19;;;;;;;41.63;17.05;;;2.30;99.90;;;;;;5091065;28;20035;-76
2022/01/10 03:27:47;;;;;;;47.92;17.95;;;2.40;99.90;;;;;;5088425;28;20028;-79
2022/01/10 03:30:15;;;;;;;34.38;16.40;;;2.50;99.90;;;;;;5072680;28;20028;-79
2022/01/10 03:32:42;;;;;;;38.38;16.10;;;2.70;99.90;;;;;;5071453;28;20027;-80
2022/01/10 03:35:19;;;;;;;43.20;17.27;;;2.70;99.90;;;;;;5071339;28;20109;-80
2022/01/10 03:37:45;;;;;;;32.83;15.18;;;2.80;99.90;;;;;;5072550;28;20464;-79
2022/01/10 03:40:11;;;;;;;37.88;16.75;;;2.80;99.90;;;;;;5088307;28;20025;-80
2022/01/10 03:42:37;;;;;;;45.00;16.67;;;3.00;99.90;;;;;;5088234;28;20033;-79
2022/01/10 03:45:05;;;;;;;32.70;17.42;;;2.80;99.90;;;;;;5071340;28;20035;-79
2022/01/10 03:47:31;;;;;;;37.20;17.20;;;2.70;99.90;;;;;;5071425;28;20036;-79
2022/01/10 03:49:57;;;;;;;35.53;17.75;;;2.70;99.90;;;;;;5072646;28;20084;-79
2022/01/10 03:52:23;;;;;;;44.60;17.83;;;2.70;99.90;;;;;;5071107;28;20025;-79
2022/01/10 03:54:50;;;;;;;44.70;18.38;;;2.80;99.90;;;;;;5071428;28;20398;-79
2022/01/10 03:57:15;;;;;;;47.67;18.67;;;2.80;99.90;;;;;;5088130;28;20032;-79
2022/01/10 03:59:41;;;;;;;39.63;18.40;;;2.90;99.90;;;;;;5071367;28;20465;-80
2022/01/10 04:02:08;;;;;;;37.05;18.58;;;3.10;99.90;;;;;;5088084;28;20032;-80
2022/01/10 04:04:36;;;;;;;40.83;19.17;;;3.00;99.90;;;;;;5071286;28;20433;-79
2022/01/10 04:07:04;;;;;;;40.65;19.10;;;2.90;99.90;;;;;;5071009;28;20020;-80
2022/01/10 04:09:29;;;;;;;49.75;18.40;;;2.80;99.90;;;;;;5080430;28;20025;-80
2022/01/10 04:11:55;;;;;;;38.42;17.95;;;2.80;99.90;;;;;;5091328;28;20392;-80
2022/01/10 04:14:21;;;;;;;42.85;18.70;;;2.80;99.90;;;;;;5091391;28;20565;-80
2022/01/10 04:16:47;;;;;;;45.97;19.65;;;2.80;99.90;;;;;;5092608;28;20361;-80
2022/01/10 04:19:12;;;;;;;41.22;18.00;;;2.90;99.90;;;;;;5091119;28;20070;-80
2022/01/10 04:21:38;;;;;;;38.92;17.65;;;2.90;99.90;;;;;;5090998;28;20048;-79
2022/01/10 04:24:04;;;;;;;36.20;17.50;;;3.10;99.90;;;;;;5092815;28;20445;-80
2022/01/10 04:26:30;;;;;;;38.88;17.23;;;3.20;99.90;;;;;;5090983;28;20035;-80
2022/01/10 04:28:56;;;;;;;43.15;19.05;;;3.20;99.90;;;;;;5091329;28;20388;-81
2022/01/10 04:31:22;;;;;;;46.13;18.73;;;3.10;99.90;;;;;;5090939;28;20016;-81
2022/01/10 04:33:48;;;;;;;38.53;17.92;;;3.10;99.90;;;;;;5091206;28;20141;-81
2022/01/10 04:36:13;;;;;;;48.72;18.25;;;3.10;99.90;;;;;;5093300;28;20034;-81
2022/01/10 04:38:42;;;;;;;41.17;17.27;;;3.20;99.90;;;;;;5095042;28;20036;-79
2022/01/10 04:41:10;;;;;;;45.25;17.63;;;3.10;99.90;;;;;;5094722;28;20016;-81
2022/01/10 04:43:37;;;;;;;35.60;16.77;;;3.30;99.90;;;;;;5094984;28;20028;-80
2022/01/10 04:46:04;;;;;;;30.95;16.48;;;3.40;99.90;;;;;;5077969;28;20028;-81
2022/01/10 04:48:30;;;;;;;37.90;16.67;;;3.40;99.90;;;;;;5094758;28;20028;-81
2022/01/10 04:51:13;;;;;;;35.58;17.08;;;3.30;99.90;;;;;;5094575;28;20051;-82
2022/01/10 04:53:43;;;;;;;38.67;16.73;;;3.50;99.90;;;;;;5094688;28;20032;-81
2022/01/10 04:56:10;;;;;;;42.53;16.45;;;3.30;99.90;;;;;;5094575;28;20051;-81
2022/01/10 04:58:36;;;;;;;35.00;16.73;;;3.50;99.90;;;;;;5095897;28;20081;-82
2022/01/10 05:01:04;;;;;;;34.80;18.10;;;3.50;99.90;;;;;;5094093;28;20469;-81
2022/01/10 05:03:31;;;;;;;34.85;16.50;;;3.60;99.90;;;;;;5094162;28;20028;-81
2022/01/10 05:05:58;;;;;;;42.75;17.27;;;3.40;99.90;;;;;;5095624;28;20023;-81
2022/01/10 05:08:25;;;;;;;38.47;18.92;;;3.40;99.90;;;;;;5094391;28;20127;-81
2022/01/10 05:10:53;;;;;;;41.55;18.30;;;3.50;99.90;;;;;;5094328;28;20161;-81
2022/01/10 05:13:20;;;;;;;36.28;16.58;;;3.60;99.90;;;;;;5094266;28;20024;-81
2022/01/10 05:15:47;;;;;;;34.17;17.85;;;3.60;99.90;;;;;;5094303;28;20043;-81
2022/01/10 05:18:14;;;;;;;46.80;18.48;;;3.60;99.90;;;;;;5094008;28;20035;-79
2022/01/10 05:20:40;;;;;;;37.08;17.75;;;3.50;99.90;;;;;;5095384;28;20039;-83
2022/01/10 05:23:06;;;;;;;38.22;17.92;;;3.30;99.90;;;;;;5093833;28;20039;-81
2022/01/10 05:25:36;;;;;;;38.63;17.75;;;3.30;99.90;;;;;;5094001;28;20023;-81
2022/01/10 05:28:17;;;;;;;42.13;17.33;;;3.20;99.90;;;;;;5094076;28;20024;-81
2022/01/10 05:30:44;;;;;;;32.95;14.30;;;3.20;99.90;;;;;;5094372;28;20451;-80
2022/01/10 05:33:13;;;;;;;41.72;18.00;;;3.10;99.90;;;;;;5093646;28;20024;-81
2022/01/10 05:35:50;;;;;;;43.28;19.80;;;3.10;99.90;;;;;;5093920;28;20028;-81
2022/01/10 05:38:15;;;;;;;39.38;18.98;;;3.20;99.90;;;;;;5095199;28;20085;-78
2022/01/10 05:40:41;;;;;;;52.78;19.73;;;3.30;99.90;;;;;;5094011;28;20043;-81
2022/01/10 05:43:09;;;;;;;32.63;18.08;;;3.40;99.90;;;;;;5093442;28;20040;-82
2022/01/10 05:45:35;;;;;;;41.33;19.40;;;3.60;99.90;;;;;;5093685;28;20031;-81
2022/01/10 05:48:08;;;;;;;33.95;17.75;;;3.70;99.90;;;;;;5092813;28;20481;-82
2022/01/10 05:50:36;;;;;;;40.00;19.25;;;3.70;99.90;;;;;;5093578;28;20031;-82
2022/01/10 05:53:07;;;;;;;46.13;20.10;;;3.70;99.90;;;;;;5093390;28;20032;-81
2022/01/10 05:55:35;;;;;;;33.08;17.35;;;3.40;99.90;;;;;;5093739;28;20418;-81
2022/01/10 05:58:01;;;;;;;33.55;18.40;;;3.20;99.90;;;;;;5093435;28;20044;-81
2022/01/10 06:00:27;;;;;;;46.40;20.73;;;3.20;99.90;;;;;;5093757;28;20028;-81
2022/01/10 06:02:53;;;;;;;50.00;21.73;;;3.20;99.90;;;;;;5094303;28;20281;-82
2022/01/10 06:05:31;;;;;;;43.78;19.27;;;3.30;99.90;;;;;;5077650;28;20020;-82
2022/01/10 06:08:00;;;;;;;37.05;21.08;;;3.20;99.90;;;;;;5093267;28;20036;-82
2022/01/10 06:10:26;;;;;;;39.42;20.45;;;3.10;99.90;;;;;;5093159;28;20082;-81
2022/01/10 06:12:53;;;;;;;33.13;20.10;;;3.10;99.90;;;;;;5093066;28;20114;-81
2022/01/10 06:15:19;;;;;;;47.85;23.00;;;3.10;99.90;;;;;;5093027;28;20027;-81
2022/01/10 06:17:45;;;;;;;38.40;20.50;;;3.10;99.90;;;;;;5092534;28;20028;-81
2022/01/10 06:20:11;;;;;;;48.85;21.90;;;3.00;99.90;;;;;;5093254;28;20097;-81
2022/01/10 06:22:38;;;;;;;43.35;20.73;;;3.00;99.90;;;;;;5092801;28;20079;-82
2022/01/10 06:25:08;;;;;;;45.38;23.08;;;2.90;99.90;;;;;;5092915;28;20028;-79
2022/01/10 06:27:35;;;;;;;49.75;23.48;;;3.00;99.90;;;;;;5092818;28;20077;-82
2022/01/10 06:30:02;;;;;;;38.03;21.33;;;3.10;99.90;;;;;;5092540;28;20027;-81
2022/01/10 06:32:31;;;;;;;47.40;22.92;;;3.10;99.90;;;;;;5092786;28;20074;-81
2022/01/10 06:34:58;;;;;;;45.72;22.17;;;3.10;99.90;;;;;;5092673;28;20020;-79
2022/01/10 06:37:25;;;;;;;40.72;22.48;;;3.10;99.90;;;;;;5092807;28;20475;-82
2022/01/10 06:39:52;;;;;;;42.95;22.45;;;3.10;99.90;;;;;;5092637;28;20024;-80
2022/01/10 06:42:19;;;;;;;40.10;22.88;;;3.00;99.90;;;;;;5092597;28;20051;-81
2022/01/10 06:44:45;;;;;;;44.47;21.88;;;3.20;99.90;;;;;;5085631;28;20106;-81
2022/01/10 06:47:14;;;;;;;46.05;22.08;;;3.30;99.90;;;;;;5074855;28;20024;-77
2022/01/10 06:49:39;;;;;;;44.40;21.73;;;3.30;99.90;;;;;;5073472;28;20054;-81
2022/01/10 06:52:06;;;;;;;39.38;19.77;;;3.20;99.90;;;;;;5072242;28;20111;-81
2022/01/10 06:54:33;;;;;;;52.60;21.85;;;3.20;99.90;;;;;;5071828;28;20032;-81
2022/01/10 06:56:58;;;;;;;37.75;19.85;;;3.20;99.90;;;;;;5074284;28;20029;-81
2022/01/10 06:59:26;;;;;;;44.38;19.73;;;3.10;99.90;;;;;;5071102;28;20093;-81
2022/01/10 07:01:55;;;;;;;42.42;18.90;;;2.90;99.90;;;;;;5071865;28;20077;-80
2022/01/10 07:04:22;;;;;;;41.15;20.38;;;2.80;99.90;;;;;;5071826;28;20378;-77
2022/01/10 07:06:49;;;;;;;51.40;19.85;;;2.80;99.90;;;;;;5071848;28;20029;-81
2022/01/10 07:09:20;;;;;;;39.08;20.10;;;2.90;99.90;;;;;;5078396;28;20023;-81
2022/01/10 07:12:02;;;;;;;38.95;20.92;;;2.90;99.90;;;;;;5092081;28;20486;-81
2022/01/10 07:14:35;;;;;;;43.35;19.95;;;3.10;99.90;;;;;;5091561;28;20035;-81
2022/01/10 07:17:02;;;;;;;41.90;19.08;;;3.00;99.90;;;;;;5091990;28;20115;-81
2022/01/10 07:19:28;;;;;;;40.35;19.25;;;2.90;99.90;;;;;;5091761;28;20043;-81
2022/01/10 07:21:54;;;;;;;35.60;18.15;;;3.00;99.90;;;;;;5091762;28;20032;-81
2022/01/10 07:24:21;;;;;;;42.42;19.60;;;3.10;99.90;;;;;;5091920;28;20454;-81
2022/01/10 07:26:47;;;;;;;35.67;18.50;;;3.10;99.90;;;;;;5093142;28;20119;-81
2022/01/10 07:29:13;;;;;;;38.30;20.00;;;2.90;99.90;;;;;;5092837;28;20028;-82
2022/01/10 07:31:41;;;;;;;40.45;19.63;;;3.00;99.90;;;;;;5093122;28;20024;-81
2022/01/10 07:34:10;;;;;;;41.92;19.63;;;3.10;99.90;;;;;;5092995;28;20407;-82
2022/01/10 07:36:36;;;;;;;52.95;20.23;;;3.10;99.90;;;;;;5092892;28;20043;-82
2022/01/10 07:39:02;;;;;;;42.92;20.08;;;3.20;99.90;;;;;;5092195;28;20059;-83
2022/01/10 07:41:28;;;;;;;36.38;19.25;;;3.20;99.90;;;;;;5093224;28;20023;-83
2022/01/10 07:43:56;;;;;;;32.80;18.02;;;3.20;99.90;;;;;;5092791;28;20027;-83
2022/01/10 07:46:22;;;;;;;43.20;18.30;;;3.10;99.90;;;;;;5092936;28;20460;-82
2022/01/10 07:48:48;;;;;;;37.58;18.33;;;3.10;99.90;;;;;;5092816;28;20480;-81
2022/01/10 07:51:13;;;;;;;38.17;18.67;;;3.00;99.90;;;;;;5092922;28;20052;-82
2022/01/10 07:53:40;;;;;;;39.25;18.30;;;3.10;99.90;;;;;;5092798;28;20510;-81
2022/01/10 07:56:07;;;;;;;41.15;19.23;;;3.20;99.90;;;;;;5093157;28;20433;-81
2022/01/10 07:58:34;;;;;;;36.67;18.23;;;3.20;99.90;;;;;;5092671;28;20078;-82
2022/01/10 08:01:00;;;;;;;42.83;19.13;;;3.10;99.90;;;;;;5092809;28;20489;-81
2022/01/10 08:03:26;;;;;;;41.85;19.35;;;3.20;99.90;;;;;;5088761;28;20111;-79
2022/01/10 08:05:52;;;;;;;39.17;20.45;;;3.20;99.90;;;;;;5081377;28;20381;-81
2022/01/10 08:08:18;;;;;;;34.75;18.35;;;3.20;99.90;;;;;;5071277;28;20036;-81
2022/01/10 08:10:44;;;;;;;34.80;19.33;;;3.10;99.90;;;;;;5092751;28;20023;-81
2022/01/10 08:13:10;;;;;;;32.17;18.98;;;3.00;99.90;;;;;;5095252;28;20039;-80
2022/01/10 08:15:35;;;;;;;44.42;18.20;;;2.90;99.90;;;;;;5096555;28;20031;-81
2022/01/10 08:18:02;;;;;;;49.22;21.13;;;2.90;99.90;;;;;;5096721;28;20036;-80
2022/01/10 08:20:28;;;;;;;34.13;19.13;;;2.90;99.90;;;;;;5096557;28;20032;-81
2022/01/10 08:22:54;;;;;;;40.28;19.95;;;2.90;99.90;;;;;;5096554;28;20590;-81
2022/01/10 08:25:19;;;;;;;40.28;20.75;;;2.90;99.90;;;;;;5095243;28;20461;-81
2022/01/10 08:27:45;;;;;;;41.05;21.45;;;3.00;99.90;;;;;;5096032;28;20032;-80
2022/01/10 08:30:11;;;;;;;37.33;19.55;;;3.10;99.90;;;;;;5096395;28;20115;-82
2022/01/10 08:32:37;;;;;;;43.17;19.08;;;3.10;99.90;;;;;;5096249;28;20056;-81
2022/01/10 08:35:04;;;;;;;44.90;19.85;;;3.10;99.90;;;;;;5096432;28;20017;-82
2022/01/10 08:37:30;;;;;;;38.72;18.08;;;3.10;99.90;;;;;;5096285;28;20105;-81
2022/01/10 08:39:56;;;;;;;39.15;18.75;;;3.00;99.90;;;;;;5096282;28;20484;-82
2022/01/10 08:42:23;;;;;;;35.30;17.75;;;3.00;99.90;;;;;;5095818;28;20040;-82
2022/01/10 08:44:49;;;;;;;34.10;18.98;;;3.10;99.90;;;;;;5094945;28;20020;-81
2022/01/10 08:47:15;;;;;;;38.80;19.02;;;3.10;99.90;;;;;;5095991;28;20019;-81
2022/01/10 08:49:41;;;;;;;35.80;18.85;;;3.20;99.90;;;;;;5095169;28;20020;-81
2022/01/10 08:52:08;;;;;;;44.00;17.70;;;3.30;99.90;;;;;;5095999;28;20131;-80
2022/01/10 08:54:34;;;;;;;32.20;17.92;;;3.20;99.90;;;;;;5095827;28;20483;-81
2022/01/10 08:57:00;;;;;;;35.47;17.67;;;3.20;99.90;;;;;;5094465;28;20547;-81
2022/01/10 08:59:28;;;;;;;34.38;18.85;;;3.10;99.90;;;;;;5096020;28;20103;-81
2022/01/10 09:01:55;;;;;;;41.63;18.45;;;3.20;99.90;;;;;;5094309;28;20020;-81
2022/01/10 09:04:21;;;;;;;37.25;19.13;;;3.10;99.90;;;;;;5094577;28;20105;-81
2022/01/10 09:06:49;;;;;;;39.50;19.90;;;3.00;99.90;;;;;;5095612;28;20016;-81
2022/01/10 09:09:15;;;;;;;33.42;18.63;;;3.00;99.90;;;;;;5095728;28;20411;-80
2022/01/10 09:11:42;;;;;;;38.67;19.00;;;2.90;99.90;;;;;;5095143;28;20012;-81
2022/01/10 09:14:08;;;;;;;37.10;19.08;;;3.00;99.90;;;;;;5094388;28;20472;-81
2022/01/10 09:16:34;;;;;;;37.67;20.15;;;3.10;99.90;;;;;;5095558;28;20044;-81
2022/01/10 09:19:00;;;;;;;40.25;18.77;;;3.10;99.90;;;;;;5094050;28;20024;-81
2022/01/10 09:21:26;;;;;;;39.67;20.35;;;3.20;99.90;;;;;;5094447;28;20543;-80
2022/01/10 09:23:52;;;;;;;36.95;19.35;;;3.30;99.90;;;;;;5095237;28;20063;-81
2022/01/10 09:26:18;;;;;;;43.08;19.50;;;3.30;99.90;;;;;;5093524;28;20059;-81
2022/01/10 09:28:43;;;;;;;46.97;21.55;;;3.10;99.90;;;;;;5095216;28;20032;-80
2022/01/10 09:31:10;;;;;;;35.58;18.77;;;3.00;99.90;;;;;;5095363;28;20028;-81
2022/01/10 09:33:36;;;;;;;35.80;19.90;;;3.00;99.90;;;;;;5095260;28;20046;-80
2022/01/10 09:36:03;;;;;;;38.50;20.77;;;3.00;99.90;;;;;;5095339;28;20095;-81
2022/01/10 09:38:28;;;;;;;42.67;20.58;;;2.90;99.90;;;;;;5095159;28;20032;-81
2022/01/10 09:40:54;;;;;;;44.50;22.02;;;3.10;99.90;;;;;;5095048;28;20438;-81
2022/01/10 09:43:21;;;;;;;40.65;22.30;;;3.30;99.90;;;;;;5095018;28;20061;-81
2022/01/10 09:45:48;;;;;;;42.35;22.13;;;3.20;99.90;;;;;;5093562;28;20472;-81
2022/01/10 09:48:14;;;;;;;41.38;21.13;;;3.20;99.90;;;;;;5095090;28;20031;-81
2022/01/10 09:50:41;;;;;;;40.58;21.20;;;3.10;99.90;;;;;;5094823;28;20020;-81
2022/01/10 09:53:08;;;;;;;40.35;22.25;;;3.00;99.90;;;;;;5094466;28;20067;-81
2022/01/10 09:55:35;;;;;;;39.88;20.35;;;3.10;99.90;;;;;;5093626;28;20036;-81
2022/01/10 09:58:03;;;;;;;43.53;21.60;;;3.20;99.90;;;;;;5094702;28;20027;-81
2022/01/10 10:00:29;;;;;;;40.10;20.20;;;3.40;99.90;;;;;;5094692;28;20109;-81
2022/01/10 10:02:55;;;;;;;43.00;20.30;;;3.30;99.90;;;;;;5094343;28;20040;-81
2022/01/10 10:05:21;;;;;;;38.95;19.67;;;3.30;99.90;;;;;;5094775;28;20031;-81
2022/01/10 10:07:48;;;;;;;34.10;18.50;;;3.20;99.90;;;;;;5093913;28;20035;-78
2022/01/10 10:10:14;;;;;;;32.85;18.90;;;3.10;99.90;;;;;;5094401;28;20032;-80
2022/01/10 10:12:43;;;;;;;33.33;17.63;;;3.00;99.90;;;;;;5094239;28;20118;-82
2022/01/10 10:15:12;;;;;;;30.15;18.75;;;3.00;99.90;;;;;;5094483;28;20020;-81
2022/01/10 10:17:39;;;;;;;29.67;17.90;;;2.90;99.90;;;;;;5094257;28;20051;-80
2022/01/10 10:20:15;;;;;;;32.88;18.98;;;3.10;99.90;;;;;;5094156;28;20024;-80
2022/01/10 10:22:42;;;;;;;31.33;18.63;;;3.00;99.90;;;;;;5094009;28;20044;-81
2022/01/10 10:25:09;;;;;;;38.40;20.90;;;3.10;99.90;;;;;;5094117;28;20047;-82
2022/01/10 10:27:40;;;;;;;30.30;16.92;;;3.30;99.90;;;;;;5094068;28;20036;-81
2022/01/10 10:30:12;;;;;;;28.48;17.50;;;3.30;99.90;;;;;;5093965;28;20107;-81
2022/01/10 10:32:37;;;;;;;30.15;17.75;;;3.00;99.90;;;;;;5094130;28;20036;-81
2022/01/10 10:35:06;;;;;;;32.42;19.23;;;3.00;99.90;;;;;;5092670;28;20165;-78
2022/01/10 10:37:36;;;;;;;33.78;18.63;;;3.00;99.90;;;;;;5092390;28;20040;-81
2022/01/10 10:40:07;;;;;;;39.42;21.70;;;3.00;99.90;;;;;;5092516;28;20354;-81
2022/01/10 10:42:33;;;;;;;36.88;21.52;;;3.20;99.90;;;;;;5094026;28;20480;-81
2022/01/10 10:45:03;;;;;;;40.03;21.85;;;3.10;99.90;;;;;;5093794;28;20035;-80
2022/01/10 10:47:28;;;;;;;37.78;22.17;;;2.90;99.90;;;;;;5092554;28;20149;-81
2022/01/10 10:49:58;;;;;;;42.95;22.08;;;2.90;99.90;;;;;;5093842;28;20443;-80
2022/01/10 10:52:36;;;;;;;44.30;22.02;;;2.90;99.90;;;;;;5093279;28;20040;-81
2022/01/10 10:55:11;;;;;;;44.63;24.15;;;2.90;99.90;;;;;;5093671;28;20032;-81
2022/01/10 10:57:37;;;;;;;41.95;23.80;;;3.00;99.90;;;;;;5093610;28;20063;-80
2022/01/10 11:00:08;;;;;;;44.90;24.05;;;3.00;99.90;;;;;;5093632;28;20020;-81
2022/01/10 11:02:34;;;;;;;45.67;24.50;;;3.10;99.90;;;;;;5093302;28;20032;-80
2022/01/10 11:05:03;;;;;;;43.15;23.13;;;2.90;99.90;;;;;;5092008;28;20013;-81
2022/01/10 11:07:32;;;;;;;42.92;23.38;;;2.70;99.90;;;;;;5091818;28;20442;-81
2022/01/10 11:09:58;;;;;;;44.67;25.42;;;2.80;99.90;;;;;;5092019;28;20054;-81
2022/01/10 11:12:24;;;;;;;43.92;25.15;;;2.80;99.90;;;;;;5092277;28;20067;-81
2022/01/10 11:14:52;;;;;;;46.15;25.05;;;2.80;99.90;;;;;;5093521;28;20455;-81
2022/01/10 11:17:22;;;;;;;42.10;24.00;;;2.80;99.90;;;;;;5093237;28;20105;-81
2022/01/10 11:20:17;;;;;;;46.10;25.15;;;2.90;99.90;;;;;;5091714;28;20028;-80
2022/01/10 11:22:46;;;;;;;48.85;24.63;;;3.00;99.90;;;;;;5093061;28;20048;-78
2022/01/10 11:25:26;;;;;;;50.28;25.05;;;2.80;99.90;;;;;;5093090;28;20042;-81
2022/01/10 11:27:58;;;;;;;49.45;25.27;;;3.00;99.90;;;;;;5071625;28;20032;-81
2022/01/10 11:30:24;;;;;;;;;;;3.00;99.90;;;;;;5073170;28;20032;-81
2022/01/10 11:32:54;;;;;;;41.85;21.67;;;3.20;99.90;;;;;;5073023;28;19904;-81
2022/01/10 11:35:20;;;;;;;40.55;20.67;;;2.90;99.90;;;;;;5072579;28;20029;-81
2022/01/10 11:37:46;;;;;;;41.40;21.77;;;2.80;99.90;;;;;;5072744;28;20112;-80
2022/01/10 11:40:14;;;;;;;42.50;22.60;;;3.00;99.90;;;;;;5072630;28;20020;-81
2022/01/10 11:42:44;;;;;;;40.55;22.27;;;3.00;99.90;;;;;;5072694;28;20362;-81
2022/01/10 11:45:12;;;;;;;38.03;18.77;;;3.10;99.90;;;;;;5072210;28;20016;-81
2022/01/10 11:48:04;;;;;;;35.33;18.95;;;3.20;99.90;;;;;;5072750;28;20028;-81
2022/01/10 11:50:31;;;;;;;33.03;18.92;;;3.10;99.90;;;;;;5072725;28;20082;-81
2022/01/10 11:52:59;;;;;;;33.63;18.73;;;3.30;99.90;;;;;;5072455;28;20120;-79
2022/01/10 11:55:52;;;;;;;35.08;19.30;;;3.10;99.90;;;;;;5072560;28;20028;-81
2022/01/10 11:58:23;;;;;;;31.25;18.13;;;2.90;99.90;;;;;;5072695;28;20111;-81
2022/01/10 12:00:52;;;;;;;37.23;18.73;;;2.90;99.90;;;;;;5072408;28;20029;-81
2022/01/10 12:03:20;;;;;;;34.60;19.17;;;2.80;99.90;;;;;;5072389;28;20783;-81
2022/01/10 12:05:46;;;;;;;36.00;20.13;;;2.80;99.90;;;;;;5070880;28;20458;-81
2022/01/10 12:08:11;;;;;;;36.45;20.83;;;2.80;99.90;;;;;;5072407;28;20055;-81
2022/01/10 12:10:37;;;;;;;36.45;20.20;;;2.90;99.90;;;;;;5089833;28;20523;-81
2022/01/10 12:13:11;;;;;;;38.45;20.17;;;2.90;99.90;;;;;;5091396;28;20036;-80
2022/01/10 12:15:38;;;;;;;37.95;20.15;;;2.90;99.90;;;;;;5092333;28;20106;-81
2022/01/10 12:18:05;;;;;;;36.90;20.08;;;2.90;99.90;;;;;;5091273;28;20447;-80
2022/01/10 12:20:31;;;;;;;37.47;18.63;;;2.80;99.90;;;;;;5092304;28;20452;-80
2022/01/10 12:22:59;;;;;;;31.88;17.35;;;2.60;99.90;;;;;;5092424;28;20044;-80
2022/01/10 12:25:26;;;;;;;34.50;19.35;;;2.70;99.90;;;;;;5092308;28;20027;-81
2022/01/10 12:27:57;;;;;;;41.00;22.02;;;2.80;99.90;;;;;;5092541;28;20039;-80
2022/01/10 12:30:25;;;;;;;34.92;18.20;;;2.90;99.90;;;;;;5092355;28;20107;-80
2022/01/10 12:32:51;;;;;;;34.08;18.27;;;2.90;99.90;;;;;;5091073;28;20178;-80
2022/01/10 12:35:17;;;;;;;40.83;19.77;;;2.60;99.90;;;;;;5092256;28;20476;-80
2022/01/10 12:37:43;;;;;;;45.67;21.23;;;2.70;99.90;;;;;;5092725;28;20027;-80
2022/01/10 12:40:10;;;;;;;40.08;21.35;;;2.80;99.90;;;;;;5092418;28;20053;-80
2022/01/10 12:42:36;;;;;;;34.17;18.88;;;2.90;99.90;;;;;;5092095;28;20148;-80
2022/01/10 12:45:04;;;;;;;39.65;20.58;;;3.00;99.90;;;;;;5092574;28;20032;-79
2022/01/10 12:47:30;;;;;;;37.17;19.38;;;3.00;99.90;;;;;;5090724;28;20028;-80
2022/01/10 12:49:56;;;;;;;33.67;19.52;;;2.90;99.90;;;;;;5091175;28;20376;-79